Time,TemperatureF,DewpointF,PressureIn,WindDirection,WindDirectionDegrees,WindSpeedMPH,WindSpeedGustMPH,Humidity,HourlyPrecipIn,Conditions,Clouds,dailyrainin,SoftwareType,DateUTC
2013-06-23 00:31:00,72.0,69.0,30.18,ENE,59,0.0,0.0,91,0.00,,,0.00,,2013-06-23 04:31:00,
2013-06-23 00:42:00,72.0,69.0,30.18,ENE,59,0.0,0.0,91,0.00,,,0.00,,2013-06-23 04:42:00,
2013-06-23 00:52:00,72.0,69.0,30.18,ENE,59,0.0,0.0,91,0.00,,,0.00,,2013-06-23 04:52:00,
2013-06-23 01:01:00,72.0,69.0,30.18,ENE,59,0.0,0.0,91,0.00,,,0.00,,2013-06-23 05:01:00,
2013-06-23 01:11:00,72.0,69.0,30.18,ENE,59,0.0,0.0,91,0.00,,,0.00,,2013-06-23 05:11:00,
2013-06-23 01:32:00,69.0,67.0,30.17,ENE,73,0.0,0.0,93,0.00,,,0.00,,2013-06-23 05:32:00,
2013-06-23 01:42:00,69.0,67.0,30.15,ENE,73,0.0,0.0,93,0.00,,,0.00,,2013-06-23 05:42:00,
2013-06-23 01:52:00,68.0,66.0,30.15,ENE,73,0.0,0.0,94,0.00,,,0.00,,2013-06-23 05:52:00,
2013-06-23 02:02:00,68.0,67.0,30.15,ENE,73,0.0,0.0,95,0.00,,,0.00,,2013-06-23 06:02:00,
2013-06-23 02:12:00,67.0,66.0,30.15,ENE,73,0.0,0.0,96,0.00,,,0.00,,2013-06-23 06:12:00,
2013-06-23 02:33:00,67.0,66.0,30.15,ENE,60,0.0,0.0,96,0.00,,,0.00,,2013-06-23 06:33:00,
2013-06-23 02:43:00,67.0,66.0,30.14,ENE,60,0.0,0.0,96,0.00,,,0.00,,2013-06-23 06:43:00,
2013-06-23 02:52:00,67.0,66.0,30.14,ENE,60,0.0,0.0,97,0.00,,,0.00,,2013-06-23 06:52:00,
2013-06-23 03:02:00,66.0,65.0,30.14,ENE,60,0.0,0.0,97,0.00,,,0.00,,2013-06-23 07:02:00,
2013-06-23 03:12:00,66.0,65.0,30.14,ENE,60,0.0,0.0,97,0.00,,,0.00,,2013-06-23 07:12:00,
2013-06-23 03:22:00,66.0,65.0,30.13,ENE,60,0.0,0.0,98,0.00,,,0.00,,2013-06-23 07:22:00,
2013-06-23 03:34:00,66.0,65.0,30.13,ENE,60,0.0,0.0,98,0.00,,,0.00,,2013-06-23 07:34:00,
2013-06-23 03:43:00,66.0,65.0,30.13,ENE,60,0.0,0.0,98,0.00,,,0.00,,2013-06-23 07:43:00,
2013-06-23 03:53:00,65.0,64.0,30.13,ENE,60,0.0,0.0,98,0.00,,,0.00,,2013-06-23 07:53:00,
2013-06-23 04:02:00,65.0,64.0,30.13,ENE,60,0.0,0.0,98,0.00,,,0.00,,2013-06-23 08:02:00,
2013-06-23 04:12:00,65.0,64.0,30.13,ENE,60,0.0,0.0,98,0.00,,,0.00,,2013-06-23 08:12:00,
2013-06-23 04:22:00,65.0,64.0,30.13,ENE,60,0.0,0.0,98,0.00,,,0.00,,2013-06-23 08:22:00,
2013-06-23 04:34:00,65.0,64.0,30.14,ENE,60,0.0,0.0,98,0.00,,,0.00,,2013-06-23 08:34:00,
2013-06-23 04:43:00,65.0,64.0,30.13,ENE,60,0.0,0.0,98,0.00,,,0.00,,2013-06-23 08:43:00,
2013-06-23 04:53:00,65.0,64.0,30.13,ENE,60,0.0,0.0,98,0.00,,,0.00,,2013-06-23 08:53:00,
2013-06-23 05:02:00,64.0,63.0,30.13,ENE,60,0.0,0.0,98,0.00,,,0.00,,2013-06-23 09:02:00,
2013-06-23 05:12:00,64.0,63.0,30.13,ENE,60,0.0,0.0,98,0.00,,,0.00,,2013-06-23 09:12:00,
2013-06-23 05:22:00,64.0,63.0,30.14,ENE,60,0.0,0.0,98,0.00,,,0.00,,2013-06-23 09:22:00,
2013-06-23 05:34:00,64.0,63.0,30.14,ENE,60,0.0,0.0,98,0.00,,,0.00,,2013-06-23 09:34:00,
2013-06-23 05:43:00,64.0,63.0,30.15,ENE,60,0.0,0.0,98,0.00,,,0.00,,2013-06-23 09:43:00,
2013-06-23 06:02:00,64.0,63.0,30.16,ENE,60,0.0,0.0,98,0.00,,,0.00,,2013-06-23 10:02:00,
2013-06-23 06:11:00,64.0,63.0,30.16,ENE,60,0.0,0.0,98,0.00,,,0.00,,2013-06-23 10:11:00,
2013-06-23 06:22:00,63.0,63.0,30.16,ENE,60,0.0,0.0,99,0.00,,,0.00,,2013-06-23 10:22:00,
2013-06-23 06:34:00,63.0,63.0,30.16,ENE,60,0.0,0.0,99,0.00,,,0.00,,2013-06-23 10:34:00,
2013-06-23 06:43:00,63.0,63.0,30.17,ENE,60,0.0,0.0,99,0.00,,,0.00,,2013-06-23 10:43:00,
2013-06-23 06:53:00,63.0,63.0,30.18,ENE,60,0.0,0.0,99,0.00,,,0.00,,2013-06-23 10:53:00,
2013-06-23 07:01:00,63.0,63.0,30.18,ENE,60,0.0,0.0,99,0.00,,,0.00,,2013-06-23 11:01:00,
2013-06-23 07:11:00,64.0,64.0,30.19,ENE,60,0.0,0.0,99,0.00,,,0.00,,2013-06-23 11:11:00,
2013-06-23 07:22:00,64.0,64.0,30.19,ENE,60,0.0,0.0,99,0.00,,,0.00,,2013-06-23 11:22:00,
2013-06-23 07:33:00,64.0,64.0,30.19,ENE,60,0.0,0.0,99,0.00,,,0.00,,2013-06-23 11:33:00,
2013-06-23 07:43:00,65.0,65.0,30.19,ENE,60,0.0,0.0,99,0.00,,,0.00,,2013-06-23 11:43:00,
2013-06-23 07:53:00,66.0,65.0,30.19,ENE,58,0.0,0.0,98,0.00,,,0.00,,2013-06-23 11:53:00,
2013-06-23 08:01:00,67.0,66.0,30.19,East,84,1.0,1.0,97,0.00,,,0.00,,2013-06-23 12:01:00,
2013-06-23 08:12:00,69.0,68.0,30.20,East,84,1.0,1.0,95,0.00,,,0.00,,2013-06-23 12:12:00,
2013-06-23 08:22:00,70.0,67.0,30.20,East,100,2.0,2.0,91,0.00,,,0.00,,2013-06-23 12:22:00,
2013-06-23 08:33:00,71.0,68.0,30.21,ESE,107,1.0,2.0,90,0.00,,,0.00,,2013-06-23 12:33:00,
2013-06-23 08:42:00,72.0,68.0,30.21,East,79,2.0,0.0,87,0.00,,,0.00,,2013-06-23 12:42:00,
2013-06-23 09:02:00,73.0,69.0,30.22,ESE,111,1.0,3.0,86,0.00,,,0.00,,2013-06-23 13:02:00,
2013-06-23 09:34:00,76.0,70.0,30.22,ENE,76,0.0,0.0,81,0.00,,,0.00,,2013-06-23 13:34:00,
2013-06-23 10:04:00,77.0,70.0,30.23,ESE,115,2.0,3.0,78,0.00,,,0.00,,2013-06-23 14:04:00,
2013-06-23 10:11:00,77.0,70.0,30.23,South,172,0.0,2.0,79,0.00,,,0.00,,2013-06-23 14:11:00,
2013-06-23 10:22:00,78.0,70.0,30.23,SSE,166,0.0,1.0,76,0.00,,,0.00,,2013-06-23 14:22:00,
2013-06-23 10:34:00,79.0,71.0,30.23,SSE,167,0.0,0.0,76,0.00,,,0.00,,2013-06-23 14:34:00,
2013-06-23 10:44:00,79.0,69.0,30.23,South,174,3.0,3.0,72,0.00,,,0.00,,2013-06-23 14:44:00,
2013-06-23 10:52:00,80.0,71.0,30.24,SSW,210,1.0,2.0,73,0.00,,,0.00,,2013-06-23 14:52:00,
2013-06-23 11:05:00,80.0,69.0,30.24,SSE,156,1.0,1.0,69,0.00,,,0.00,,2013-06-23 15:05:00,
2013-06-23 11:11:00,80.0,69.0,30.24,SSE,149,2.0,3.0,69,0.00,,,0.00,,2013-06-23 15:11:00,
2013-06-23 11:23:00,81.0,69.0,30.24,SE,129,1.0,1.0,68,0.00,,,0.00,,2013-06-23 15:23:00,
2013-06-23 11:35:00,82.0,70.0,30.24,SSE,165,1.0,1.0,67,0.00,,,0.00,,2013-06-23 15:35:00,
2013-06-23 11:43:00,82.0,70.0,30.24,SE,145,3.0,3.0,67,0.00,,,0.00,,2013-06-23 15:43:00,
2013-06-23 11:52:00,82.0,71.0,30.24,ENE,72,0.0,0.0,69,0.00,,,0.00,,2013-06-23 15:52:00,
2013-06-23 12:06:00,83.0,71.0,30.24,East,84,2.0,2.0,67,0.00,,,0.00,,2013-06-23 16:06:00,
2013-06-23 12:12:00,83.0,71.0,30.24,East,89,0.0,0.0,68,0.00,,,0.00,,2013-06-23 16:12:00,
2013-06-23 12:22:00,83.0,70.0,30.24,SE,125,1.0,2.0,66,0.00,,,0.00,,2013-06-23 16:22:00,
2013-06-23 12:36:00,83.0,69.0,30.23,SE,139,1.0,0.0,62,0.00,,,0.00,,2013-06-23 16:36:00,
2013-06-23 12:43:00,85.0,70.0,30.23,SSE,156,2.0,2.0,62,0.00,,,0.00,,2013-06-23 16:43:00,
2013-06-23 12:53:00,83.0,67.0,30.23,North,3,0.0,0.0,59,0.00,,,0.00,,2013-06-23 16:53:00,
2013-06-23 13:05:00,83.0,70.0,30.22,North,6,0.0,0.0,65,0.00,,,0.00,,2013-06-23 17:05:00,
2013-06-23 13:12:00,82.0,69.0,30.22,North,7,2.0,0.0,66,0.00,,,0.00,,2013-06-23 17:12:00,
2013-06-23 13:22:00,81.0,70.0,30.22,North,7,0.0,0.0,69,0.00,,,0.00,,2013-06-23 17:22:00,
2013-06-23 13:33:00,82.0,70.0,30.21,NNE,18,1.0,2.0,68,0.00,,,0.00,,2013-06-23 17:33:00,
2013-06-23 13:43:00,83.0,69.0,30.21,North,8,2.0,2.0,63,0.00,,,0.00,,2013-06-23 17:43:00,
2013-06-23 13:53:00,84.0,71.0,30.21,North,3,0.0,3.0,66,0.00,,,0.00,,2013-06-23 17:53:00,
2013-06-23 14:01:00,83.0,69.0,30.21,NE,41,0.0,0.0,62,0.00,,,0.00,,2013-06-23 18:01:00,
2013-06-23 14:12:00,83.0,67.0,30.20,SSW,204,4.0,4.0,59,0.00,,,0.00,,2013-06-23 18:12:00,
2013-06-23 14:22:00,84.0,69.0,30.20,South,190,2.0,3.0,61,0.00,,,0.00,,2013-06-23 18:22:00,
2013-06-23 14:34:00,84.0,69.0,30.21,SSW,195,1.0,2.0,60,0.00,,,0.00,,2013-06-23 18:34:00,
2013-06-23 14:42:00,84.0,67.0,30.20,SW,231,3.0,3.0,56,0.00,,,0.00,,2013-06-23 18:42:00,
2013-06-23 14:53:00,85.0,67.0,30.19,WSW,248,2.0,2.0,55,0.00,,,0.00,,2013-06-23 18:53:00,
2013-06-23 15:01:00,86.0,68.0,30.19,West,262,1.0,0.0,55,0.00,,,0.00,,2013-06-23 19:01:00,
2013-06-23 15:11:00,86.0,67.0,30.19,SW,233,0.0,3.0,54,0.00,,,0.00,,2013-06-23 19:11:00,
2013-06-23 15:21:00,85.0,68.0,30.19,SSW,210,0.0,0.0,57,0.00,,,0.00,,2013-06-23 19:21:00,
2013-06-23 15:32:00,85.0,70.0,30.19,WSW,242,1.0,1.0,62,0.00,,,0.00,,2013-06-23 19:32:00,
2013-06-23 15:43:00,85.0,68.0,30.19,South,176,2.0,2.0,57,0.00,,,0.00,,2013-06-23 19:43:00,
2013-06-23 15:53:00,85.0,68.0,30.19,WSW,249,1.0,0.0,56,0.00,,,0.00,,2013-06-23 19:53:00,
2013-06-23 16:02:00,85.0,68.0,30.19,WSW,249,1.0,0.0,56,0.00,,,0.00,,2013-06-23 20:02:00,
2013-06-23 16:12:00,85.0,68.0,30.18,SSE,163,3.0,3.0,57,0.00,,,0.00,,2013-06-23 20:12:00,
2013-06-23 16:24:00,86.0,68.0,30.18,South,177,0.0,2.0,56,0.00,,,0.00,,2013-06-23 20:24:00,
2013-06-23 16:33:00,85.0,65.0,30.17,NNW,339,3.0,3.0,51,0.00,,,0.00,,2013-06-23 20:33:00,
2013-06-23 16:42:00,85.0,69.0,30.18,NNE,30,0.0,0.0,58,0.00,,,0.00,,2013-06-23 20:42:00,
2013-06-23 16:53:00,85.0,66.0,30.17,ENE,59,0.0,1.0,54,0.00,,,0.00,,2013-06-23 20:53:00,
2013-06-23 17:01:00,86.0,68.0,30.17,NE,44,0.0,0.0,56,0.00,,,0.00,,2013-06-23 21:01:00,
2013-06-23 17:11:00,86.0,67.0,30.17,East,87,1.0,0.0,54,0.00,,,0.00,,2013-06-23 21:11:00,
2013-06-23 17:22:00,85.0,67.0,30.17,East,91,1.0,1.0,55,0.00,,,0.00,,2013-06-23 21:22:00,
2013-06-23 17:34:00,85.0,68.0,30.16,SSE,149,1.0,2.0,57,0.00,,,0.00,,2013-06-23 21:34:00,
2013-06-23 17:44:00,86.0,67.0,30.16,SW,226,0.0,0.0,53,0.00,,,0.00,,2013-06-23 21:44:00,
2013-06-23 17:52:00,86.0,68.0,30.16,SW,226,0.0,1.0,56,0.00,,,0.00,,2013-06-23 21:52:00,
2013-06-23 18:01:00,85.0,65.0,30.16,SW,226,1.0,1.0,52,0.00,,,0.00,,2013-06-23 22:01:00,
2013-06-23 18:12:00,84.0,65.0,30.16,SSE,152,2.0,0.0,53,0.00,,,0.00,,2013-06-23 22:12:00,
2013-06-23 18:22:00,85.0,66.0,30.16,SSE,148,0.0,0.0,53,0.00,,,0.00,,2013-06-23 22:22:00,
2013-06-23 18:32:00,85.0,66.0,30.16,South,179,0.0,5.0,54,0.00,,,0.00,,2013-06-23 22:32:00,
2013-06-23 18:43:00,84.0,66.0,30.15,SSE,153,2.0,0.0,55,0.00,,,0.00,,2013-06-23 22:43:00,
2013-06-23 18:53:00,84.0,67.0,30.15,South,180,0.0,0.0,57,0.00,,,0.00,,2013-06-23 22:53:00,
2013-06-23 19:01:00,84.0,66.0,30.15,SSE,158,1.0,1.0,54,0.00,,,0.00,,2013-06-23 23:01:00,
2013-06-23 19:11:00,85.0,68.0,30.15,South,172,0.0,1.0,56,0.00,,,0.00,,2013-06-23 23:11:00,
2013-06-23 19:22:00,84.0,67.0,30.15,South,176,0.0,0.0,57,0.00,,,0.00,,2013-06-23 23:22:00,
2013-06-23 19:33:00,84.0,68.0,30.15,SSE,162,0.0,0.0,58,0.00,,,0.00,,2013-06-23 23:33:00,
2013-06-23 19:44:00,83.0,68.0,30.16,SE,139,0.0,0.0,60,0.00,,,0.00,,2013-06-23 23:44:00,
2013-06-23 19:52:00,81.0,68.0,30.16,SE,139,0.0,0.0,64,0.00,,,0.00,,2013-06-23 23:52:00,
2013-06-23 20:01:00,80.0,68.0,30.16,SE,139,0.0,0.0,66,0.00,,,0.00,,2013-06-24 00:01:00,
2013-06-23 20:11:00,79.0,68.0,30.15,SE,139,0.0,0.0,69,0.00,,,0.00,,2013-06-24 00:11:00,
2013-06-23 20:22:00,78.0,67.0,30.15,SE,139,0.0,0.0,70,0.00,,,0.00,,2013-06-24 00:22:00,
2013-06-23 20:33:00,78.0,68.0,30.16,SE,139,0.0,0.0,72,0.00,,,0.00,,2013-06-24 00:33:00,
2013-06-23 20:42:00,77.0,68.0,30.16,SE,139,0.0,0.0,73,0.00,,,0.00,,2013-06-24 00:42:00,
2013-06-23 20:52:00,77.0,68.0,30.16,SE,139,0.0,0.0,73,0.00,,,0.00,,2013-06-24 00:52:00,
2013-06-23 21:02:00,77.0,68.0,30.16,SE,139,0.0,0.0,74,0.00,,,0.00,,2013-06-24 01:02:00,
2013-06-23 21:11:00,77.0,68.0,30.17,SE,139,0.0,0.0,74,0.00,,,0.00,,2013-06-24 01:11:00,
2013-06-23 21:22:00,77.0,68.0,30.16,SE,139,0.0,0.0,74,0.00,,,0.00,,2013-06-24 01:22:00,
2013-06-23 21:32:00,76.0,67.0,30.17,SE,139,0.0,0.0,74,0.00,,,0.00,,2013-06-24 01:32:00,
2013-06-23 21:42:00,76.0,67.0,30.17,SE,139,0.0,0.0,75,0.00,,,0.00,,2013-06-24 01:42:00,
2013-06-23 21:53:00,75.0,67.0,30.18,SE,139,0.0,0.0,76,0.00,,,0.00,,2013-06-24 01:53:00,
2013-06-23 22:02:00,75.0,67.0,30.17,SE,139,0.0,0.0,77,0.00,,,0.00,,2013-06-24 02:02:00,
2013-06-23 22:11:00,75.0,67.0,30.17,SE,139,0.0,0.0,77,0.00,,,0.00,,2013-06-24 02:11:00,
2013-06-23 22:22:00,75.0,68.0,30.18,SE,139,0.0,0.0,79,0.00,,,0.00,,2013-06-24 02:22:00,
2013-06-23 22:33:00,74.0,67.0,30.18,SE,139,0.0,0.0,79,0.00,,,0.00,,2013-06-24 02:33:00,
2013-06-23 22:42:00,74.0,67.0,30.19,SE,139,0.0,0.0,79,0.00,,,0.00,,2013-06-24 02:42:00,
2013-06-23 22:53:00,73.0,67.0,30.19,SE,139,0.0,0.0,81,0.00,,,0.00,,2013-06-24 02:53:00,
2013-06-23 23:01:00,73.0,67.0,30.19,SE,139,0.0,0.0,81,0.00,,,0.00,,2013-06-24 03:01:00,
2013-06-23 23:11:00,73.0,67.0,30.19,SE,139,0.0,0.0,82,0.00,,,0.00,,2013-06-24 03:11:00,
2013-06-23 23:22:00,73.0,68.0,30.19,SE,139,0.0,0.0,83,0.00,,,0.00,,2013-06-24 03:22:00,
2013-06-23 23:33:00,72.0,67.0,30.19,SE,139,0.0,0.0,83,0.00,,,0.00,,2013-06-24 03:33:00,
2013-06-23 23:43:00,72.0,67.0,30.19,SE,139,0.0,0.0,84,0.00,,,0.00,,2013-06-24 03:43:00,
2013-06-23 23:53:00,71.0,66.0,30.19,SE,139,0.0,0.0,85,0.00,,,0.00,,2013-06-24 03:53:00,